sensor_id;sensor_type;location;lat;lon;timestamp;temperature;humidity
16136;DHT22;8173;48.354;9.248;2022-10-17T00:00:42;9.30;99.90
16136;DHT22;8173;48.354;9.248;2022-10-17T00:03:10;9.30;99.90
16136;DHT22;8173;48.354;9.248;2022-10-17T00:05:39;9.30;99.90
16136;DHT22;8173;48.354;9.248;2022-10-17T00:08:06;9.10;99.90
16136;DHT22;8173;48.354;9.248;2022-10-17T00:10:33;9.10;99.90
16136;DHT22;8173;48.354;9.248;2022-10-17T00:13:00;9.10;99.90
16136;DHT22;8173;48.354;9.248;2022-10-17T00:15:26;9.10;99.90
16136;DHT22;8173;48.354;9.248;2022-10-17T00:17:53;9.20;99.90
16136;DHT22;8173;48.354;9.248;2022-10-17T00:20:21;9.30;99.90
16136;DHT22;8173;48.354;9.248;2022-10-17T00:22:48;9.40;99.90
16136;DHT22;8173;48.354;9.248;2022-10-17T00:25:15;9.40;99.90
16136;DHT22;8173;48.354;9.248;2022-10-17T00:27:42;9.40;99.90
16136;DHT22;8173;48.354;9.248;2022-10-17T00:30:11;9.40;99.90
16136;DHT22;8173;48.354;9.248;2022-10-17T00:32:38;9.30;99.90
16136;DHT22;8173;48.354;9.248;2022-10-17T00:35:05;9.20;99.90
16136;DHT22;8173;48.354;9.248;2022-10-17T00:37:34;9.20;99.90
16136;DHT22;8173;48.354;9.248;2022-10-17T00:40:01;10.10;99.90
16136;DHT22;8173;48.354;9.248;2022-10-17T00:45:07;9.30;99.90
16136;DHT22;8173;48.354;9.248;2022-10-17T00:47:36;9.30;99.90
16136;DHT22;8173;48.354;9.248;2022-10-17T00:50:04;9.40;99.90
16136;DHT22;8173;48.354;9.248;2022-10-17T00:52:33;9.50;99.90
16136;DHT22;8173;48.354;9.248;2022-10-17T00:55:04;9.50;99.90
16136;DHT22;8173;48.354;9.248;2022-10-17T00:57:32;9.50;99.90
16136;DHT22;8173;48.354;9.248;2022-10-17T01:00:00;9.40;99.90
16136;DHT22;8173;48.354;9.248;2022-10-17T01:04:59;9.20;99.90
16136;DHT22;8173;48.354;9.248;2022-10-17T01:07:27;9.20;99.90
16136;DHT22;8173;48.354;9.248;2022-10-17T01:09:56;9.20;99.90
16136;DHT22;8173;48.354;9.248;2022-10-17T01:12:24;9.10;99.90
16136;DHT22;8173;48.354;9.248;2022-10-17T01:15:08;8.90;99.90
16136;DHT22;8173;48.354;9.248;2022-10-17T01:17:49;8.90;99.90
16136;DHT22;8173;48.354;9.248;2022-10-17T01:26:49;8.70;99.90
16136;DHT22;8173;48.354;9.248;2022-10-17T01:29:46;8.60;99.90
16136;DHT22;8173;48.354;9.248;2022-10-17T01:32:21;8.60;99.90
16136;DHT22;8173;48.354;9.248;2022-10-17T01:34:54;8.70;99.90
16136;DHT22;8173;48.354;9.248;2022-10-17T01:37:28;8.60;99.90
16136;DHT22;8173;48.354;9.248;2022-10-17T01:40:02;8.70;99.90
16136;DHT22;8173;48.354;9.248;2022-10-17T01:42:34;8.60;99.90
16136;DHT22;8173;48.354;9.248;2022-10-17T01:45:06;8.90;99.90
16136;DHT22;8173;48.354;9.248;2022-10-17T01:47:37;8.30;99.90
16136;DHT22;8173;48.354;9.248;2022-10-17T01:50:08;8.20;99.90
16136;DHT22;8173;48.354;9.248;2022-10-17T01:52:40;8.10;99.90
16136;DHT22;8173;48.354;9.248;2022-10-17T01:55:11;8.10;99.90
16136;DHT22;8173;48.354;9.248;2022-10-17T01:57:42;8.10;99.90
16136;DHT22;8173;48.354;9.248;2022-10-17T02:00:13;8.10;99.90
16136;DHT22;8173;48.354;9.248;2022-10-17T02:02:45;8.10;99.90
16136;DHT22;8173;48.354;9.248;2022-10-17T02:05:15;8.00;99.90
16136;DHT22;8173;48.354;9.248;2022-10-17T02:07:43;8.00;99.90
16136;DHT22;8173;48.354;9.248;2022-10-17T02:10:14;7.90;99.90
16136;DHT22;8173;48.354;9.248;2022-10-17T02:12:49;7.90;99.90
16136;DHT22;8173;48.354;9.248;2022-10-17T02:15:43;7.80;99.90
16136;DHT22;8173;48.354;9.248;2022-10-17T02:18:32;7.90;99.90
16136;DHT22;8173;48.354;9.248;2022-10-17T02:21:06;7.90;99.90
16136;DHT22;8173;48.354;9.248;2022-10-17T02:23:39;7.90;99.90
16136;DHT22;8173;48.354;9.248;2022-10-17T02:26:14;7.90;99.90
16136;DHT22;8173;48.354;9.248;2022-10-17T02:28:46;7.90;99.90
16136;DHT22;8173;48.354;9.248;2022-10-17T02:31:21;8.00;99.90
16136;DHT22;8173;48.354;9.248;2022-10-17T02:33:53;7.90;99.90
16136;DHT22;8173;48.354;9.248;2022-10-17T02:36:25;7.90;99.90
16136;DHT22;8173;48.354;9.248;2022-10-17T02:38:54;7.80;99.90
16136;DHT22;8173;48.354;9.248;2022-10-17T02:41:23;7.60;99.90
16136;DHT22;8173;48.354;9.248;2022-10-17T02:43:52;7.50;99.90
16136;DHT22;8173;48.354;9.248;2022-10-17T02:46:21;7.40;99.90
16136;DHT22;8173;48.354;9.248;2022-10-17T02:48:52;7.50;99.90
16136;DHT22;8173;48.354;9.248;2022-10-17T02:51:26;7.80;99.90
16136;DHT22;8173;48.354;9.248;2022-10-17T02:54:00;7.30;99.90
16136;DHT22;8173;48.354;9.248;2022-10-17T02:56:32;7.30;99.90
16136;DHT22;8173;48.354;9.248;2022-10-17T02:59:02;7.30;99.90
16136;DHT22;8173;48.354;9.248;2022-10-17T03:01:30;7.30;99.90
16136;DHT22;8173;48.354;9.248;2022-10-17T03:04:06;7.40;99.90
16136;DHT22;8173;48.354;9.248;2022-10-17T03:06:33;7.30;99.90
16136;DHT22;8173;48.354;9.248;2022-10-17T03:11:27;7.30;99.90
16136;DHT22;8173;48.354;9.248;2022-10-17T03:13:53;7.10;99.90
16136;DHT22;8173;48.354;9.248;2022-10-17T03:18:47;7.20;99.90
16136;DHT22;8173;48.354;9.248;2022-10-17T03:21:15;7.20;99.90
16136;DHT22;8173;48.354;9.248;2022-10-17T03:23:42;7.20;99.90
16136;DHT22;8173;48.354;9.248;2022-10-17T03:26:09;7.10;99.90
16136;DHT22;8173;48.354;9.248;2022-10-17T03:28:36;7.00;99.90
16136;DHT22;8173;48.354;9.248;2022-10-17T03:31:07;8.00;99.90
16136;DHT22;8173;48.354;9.248;2022-10-17T03:33:34;7.10;99.90
16136;DHT22;8173;48.354;9.248;2022-10-17T03:36:04;7.10;99.90
16136;DHT22;8173;48.354;9.248;2022-10-17T03:41:00;7.20;99.90
16136;DHT22;8173;48.354;9.248;2022-10-17T03:43:27;8.00;99.90
16136;DHT22;8173;48.354;9.248;2022-10-17T03:45:53;7.30;99.90
16136;DHT22;8173;48.354;9.248;2022-10-17T03:48:20;7.30;99.90
16136;DHT22;8173;48.354;9.248;2022-10-17T03:50:47;7.20;99.90
16136;DHT22;8173;48.354;9.248;2022-10-17T03:53:14;7.20;99.90
16136;DHT22;8173;48.354;9.248;2022-10-17T03:55:42;7.10;99.90
16136;DHT22;8173;48.354;9.248;2022-10-17T03:58:09;7.20;99.90
16136;DHT22;8173;48.354;9.248;2022-10-17T04:00:35;7.20;99.90
16136;DHT22;8173;48.354;9.248;2022-10-17T04:03:02;7.20;99.90
16136;DHT22;8173;48.354;9.248;2022-10-17T04:10:23;7.10;99.90
16136;DHT22;8173;48.354;9.248;2022-10-17T04:12:51;7.10;99.90
16136;DHT22;8173;48.354;9.248;2022-10-17T04:17:45;7.00;99.90
16136;DHT22;8173;48.354;9.248;2022-10-17T04:20:12;7.00;99.90
16136;DHT22;8173;48.354;9.248;2022-10-17T04:25:06;6.90;99.90
16136;DHT22;8173;48.354;9.248;2022-10-17T04:27:33;6.80;99.90
16136;DHT22;8173;48.354;9.248;2022-10-17T04:32:28;6.80;99.90
16136;DHT22;8173;48.354;9.248;2022-10-17T04:34:55;6.90;99.90
16136;DHT22;8173;48.354;9.248;2022-10-17T04:39:48;6.90;99.90
16136;DHT22;8173;48.354;9.248;2022-10-17T04:42:15;7.00;99.90
16136;DHT22;8173;48.354;9.248;2022-10-17T04:44:42;7.00;99.90
16136;DHT22;8173;48.354;9.248;2022-10-17T04:47:10;7.00;99.90
16136;DHT22;8173;48.354;9.248;2022-10-17T04:49:37;7.10;99.90
16136;DHT22;8173;48.354;9.248;2022-10-17T04:52:04;6.90;99.90
16136;DHT22;8173;48.354;9.248;2022-10-17T04:56:57;6.70;99.90
16136;DHT22;8173;48.354;9.248;2022-10-17T05:01:51;6.60;99.90
16136;DHT22;8173;48.354;9.248;2022-10-17T05:04:19;6.50;99.90
16136;DHT22;8173;48.354;9.248;2022-10-17T05:11:41;6.50;99.90
16136;DHT22;8173;48.354;9.248;2022-10-17T05:14:08;6.40;99.90
16136;DHT22;8173;48.354;9.248;2022-10-17T05:16:35;6.30;99.90
16136;DHT22;8173;48.354;9.248;2022-10-17T05:19:02;6.20;99.90
16136;DHT22;8173;48.354;9.248;2022-10-17T05:21:30;6.20;99.90
16136;DHT22;8173;48.354;9.248;2022-10-17T05:23:58;6.30;99.90
16136;DHT22;8173;48.354;9.248;2022-10-17T05:26:25;6.30;99.90
16136;DHT22;8173;48.354;9.248;2022-10-17T05:28:52;6.30;99.90
16136;DHT22;8173;48.354;9.248;2022-10-17T05:31:19;6.30;99.90
16136;DHT22;8173;48.354;9.248;2022-10-17T05:33:46;6.30;99.90
16136;DHT22;8173;48.354;9.248;2022-10-17T05:36:13;6.30;99.90
16136;DHT22;8173;48.354;9.248;2022-10-17T05:38:41;6.40;99.90
16136;DHT22;8173;48.354;9.248;2022-10-17T05:41:09;6.30;99.90
16136;DHT22;8173;48.354;9.248;2022-10-17T05:43:35;6.40;99.90
16136;DHT22;8173;48.354;9.248;2022-10-17T05:46:03;6.40;99.90
16136;DHT22;8173;48.354;9.248;2022-10-17T05:48:30;6.60;99.90
16136;DHT22;8173;48.354;9.248;2022-10-17T05:50:58;6.60;99.90
16136;DHT22;8173;48.354;9.248;2022-10-17T05:53:25;6.60;99.90
16136;DHT22;8173;48.354;9.248;2022-10-17T05:55:56;6.60;99.90
16136;DHT22;8173;48.354;9.248;2022-10-17T05:58:24;6.60;99.90
16136;DHT22;8173;48.354;9.248;2022-10-17T06:00:50;6.60;99.90
16136;DHT22;8173;48.354;9.248;2022-10-17T06:03:17;6.60;99.90
16136;DHT22;8173;48.354;9.248;2022-10-17T06:05:44;7.20;99.90
16136;DHT22;8173;48.354;9.248;2022-10-17T06:08:11;6.60;99.90
16136;DHT22;8173;48.354;9.248;2022-10-17T06:10:37;7.80;99.90
16136;DHT22;8173;48.354;9.248;2022-10-17T06:13:06;6.70;99.90
16136;DHT22;8173;48.354;9.248;2022-10-17T06:15:32;6.70;99.90
16136;DHT22;8173;48.354;9.248;2022-10-17T06:17:59;6.80;99.90
16136;DHT22;8173;48.354;9.248;2022-10-17T06:20:26;6.80;99.90
16136;DHT22;8173;48.354;9.248;2022-10-17T06:22:52;6.90;99.90
16136;DHT22;8173;48.354;9.248;2022-10-17T06:25:19;7.10;99.90
16136;DHT22;8173;48.354;9.248;2022-10-17T06:27:46;7.30;99.90
16136;DHT22;8173;48.354;9.248;2022-10-17T06:32:41;7.50;99.90
16136;DHT22;8173;48.354;9.248;2022-10-17T06:35:08;7.80;99.90
16136;DHT22;8173;48.354;9.248;2022-10-17T06:37:35;8.00;99.90
16136;DHT22;8173;48.354;9.248;2022-10-17T06:44:56;8.60;99.90
16136;DHT22;8173;48.354;9.248;2022-10-17T06:47:24;8.60;99.90
16136;DHT22;8173;48.354;9.248;2022-10-17T06:49:51;8.40;99.90
16136;DHT22;8173;48.354;9.248;2022-10-17T06:54:44;8.90;99.90
16136;DHT22;8173;48.354;9.248;2022-10-17T06:57:11;9.30;99.90
16136;DHT22;8173;48.354;9.248;2022-10-17T06:59:38;9.40;99.90
16136;DHT22;8173;48.354;9.248;2022-10-17T07:02:05;9.20;99.90
16136;DHT22;8173;48.354;9.248;2022-10-17T07:04:34;9.20;99.90
16136;DHT22;8173;48.354;9.248;2022-10-17T07:07:00;9.20;99.90
16136;DHT22;8173;48.354;9.248;2022-10-17T07:11:54;8.80;99.90
16136;DHT22;8173;48.354;9.248;2022-10-17T07:14:21;8.80;99.90
16136;DHT22;8173;48.354;9.248;2022-10-17T07:16:48;9.00;99.90
16136;DHT22;8173;48.354;9.248;2022-10-17T07:19:15;9.00;99.90
16136;DHT22;8173;48.354;9.248;2022-10-17T07:21:43;9.10;99.90
16136;DHT22;8173;48.354;9.248;2022-10-17T07:24:10;9.40;99.90
16136;DHT22;8173;48.354;9.248;2022-10-17T07:31:32;11.00;99.90
16136;DHT22;8173;48.354;9.248;2022-10-17T07:33:59;11.20;99.90
16136;DHT22;8173;48.354;9.248;2022-10-17T07:36:26;11.20;99.90
16136;DHT22;8173;48.354;9.248;2022-10-17T07:41:21;11.40;99.90
16136;DHT22;8173;48.354;9.248;2022-10-17T07:43:48;11.50;99.90
16136;DHT22;8173;48.354;9.248;2022-10-17T07:46:15;11.70;99.90
16136;DHT22;8173;48.354;9.248;2022-10-17T07:48:42;12.10;99.90
16136;DHT22;8173;48.354;9.248;2022-10-17T07:51:09;12.20;99.90
16136;DHT22;8173;48.354;9.248;2022-10-17T07:53:36;12.50;99.90
16136;DHT22;8173;48.354;9.248;2022-10-17T07:56:06;12.80;99.90
16136;DHT22;8173;48.354;9.248;2022-10-17T07:58:35;13.20;99.90
16136;DHT22;8173;48.354;9.248;2022-10-17T08:01:03;13.30;99.90
16136;DHT22;8173;48.354;9.248;2022-10-17T08:03:29;13.70;99.90
16136;DHT22;8173;48.354;9.248;2022-10-17T08:05:57;14.20;99.90
16136;DHT22;8173;48.354;9.248;2022-10-17T08:08:24;14.90;99.90
16136;DHT22;8173;48.354;9.248;2022-10-17T08:10:51;14.90;99.90
16136;DHT22;8173;48.354;9.248;2022-10-17T08:13:20;15.10;99.90
16136;DHT22;8173;48.354;9.248;2022-10-17T08:15:47;15.30;99.90
16136;DHT22;8173;48.354;9.248;2022-10-17T08:20:42;15.60;99.90
16136;DHT22;8173;48.354;9.248;2022-10-17T08:23:09;15.70;99.90
16136;DHT22;8173;48.354;9.248;2022-10-17T08:25:37;15.90;99.90
16136;DHT22;8173;48.354;9.248;2022-10-17T08:28:04;16.10;99.90
16136;DHT22;8173;48.354;9.248;2022-10-17T08:30:32;16.70;99.90
16136;DHT22;8173;48.354;9.248;2022-10-17T08:32:59;16.70;99.90
16136;DHT22;8173;48.354;9.248;2022-10-17T08:35:26;17.20;99.90
16136;DHT22;8173;48.354;9.248;2022-10-17T08:40:22;17.70;99.90
16136;DHT22;8173;48.354;9.248;2022-10-17T08:45:44;17.90;99.90
16136;DHT22;8173;48.354;9.248;2022-10-17T08:48:16;18.00;99.90
16136;DHT22;8173;48.354;9.248;2022-10-17T08:50:46;17.90;99.90
16136;DHT22;8173;48.354;9.248;2022-10-17T08:53:18;18.10;99.90
16136;DHT22;8173;48.354;9.248;2022-10-17T08:55:48;18.50;99.90
16136;DHT22;8173;48.354;9.248;2022-10-17T08:58:18;18.60;99.90
16136;DHT22;8173;48.354;9.248;2022-10-17T09:00:51;18.70;99.90
16136;DHT22;8173;48.354;9.248;2022-10-17T09:06:15;19.10;99.90
16136;DHT22;8173;48.354;9.248;2022-10-17T09:08:49;19.80;99.90
16136;DHT22;8173;48.354;9.248;2022-10-17T09:11:35;19.80;99.90
16136;DHT22;8173;48.354;9.248;2022-10-17T09:14:15;20.30;99.90
16136;DHT22;8173;48.354;9.248;2022-10-17T09:16:59;20.70;99.90
16136;DHT22;8173;48.354;9.248;2022-10-17T09:19:32;21.00;99.90
16136;DHT22;8173;48.354;9.248;2022-10-17T09:22:02;21.00;99.90
16136;DHT22;8173;48.354;9.248;2022-10-17T09:24:39;20.90;99.90
16136;DHT22;8173;48.354;9.248;2022-10-17T09:27:16;20.60;99.90
16136;DHT22;8173;48.354;9.248;2022-10-17T09:29:45;20.50;99.90
16136;DHT22;8173;48.354;9.248;2022-10-17T09:32:18;20.20;99.90
16136;DHT22;8173;48.354;9.248;2022-10-17T09:37:15;19.40;99.90
16136;DHT22;8173;48.354;9.248;2022-10-17T09:39:43;19.30;99.90
16136;DHT22;8173;48.354;9.248;2022-10-17T09:42:13;19.40;99.90
16136;DHT22;8173;48.354;9.248;2022-10-17T09:44:47;19.50;99.90
16136;DHT22;8173;48.354;9.248;2022-10-17T09:47:27;19.90;99.90
16136;DHT22;8173;48.354;9.248;2022-10-17T09:52:26;20.50;99.90
16136;DHT22;8173;48.354;9.248;2022-10-17T09:54:58;20.80;99.90
16136;DHT22;8173;48.354;9.248;2022-10-17T09:57:25;20.90;99.90
16136;DHT22;8173;48.354;9.248;2022-10-17T09:59:57;20.80;99.90
16136;DHT22;8173;48.354;9.248;2022-10-17T10:02:27;20.60;99.90
16136;DHT22;8173;48.354;9.248;2022-10-17T10:04:59;20.50;99.90
16136;DHT22;8173;48.354;9.248;2022-10-17T10:07:27;20.40;99.90
16136;DHT22;8173;48.354;9.248;2022-10-17T10:09:55;20.30;99.90
16136;DHT22;8173;48.354;9.248;2022-10-17T10:12:24;20.40;99.90
16136;DHT22;8173;48.354;9.248;2022-10-17T10:17:34;20.70;99.90
16136;DHT22;8173;48.354;9.248;2022-10-17T10:25:14;21.70;99.90
16136;DHT22;8173;48.354;9.248;2022-10-17T10:27:43;22.20;99.90
16136;DHT22;8173;48.354;9.248;2022-10-17T10:30:17;22.10;99.90
16136;DHT22;8173;48.354;9.248;2022-10-17T10:32:47;22.50;99.90
16136;DHT22;8173;48.354;9.248;2022-10-17T10:35:20;22.40;99.90
16136;DHT22;8173;48.354;9.248;2022-10-17T10:37:50;22.90;99.90
16136;DHT22;8173;48.354;9.248;2022-10-17T10:40:20;22.90;99.90
16136;DHT22;8173;48.354;9.248;2022-10-17T10:42:51;23.30;99.90
16136;DHT22;8173;48.354;9.248;2022-10-17T10:45:20;23.30;99.90
16136;DHT22;8173;48.354;9.248;2022-10-17T10:47:53;23.80;99.90
16136;DHT22;8173;48.354;9.248;2022-10-17T10:50:28;23.70;99.90
16136;DHT22;8173;48.354;9.248;2022-10-17T10:53:10;24.00;99.90
16136;DHT22;8173;48.354;9.248;2022-10-17T10:55:44;24.00;99.90
16136;DHT22;8173;48.354;9.248;2022-10-17T10:58:35;24.40;99.90
16136;DHT22;8173;48.354;9.248;2022-10-17T11:01:11;24.40;99.90
16136;DHT22;8173;48.354;9.248;2022-10-17T11:03:57;24.50;99.90
16136;DHT22;8173;48.354;9.248;2022-10-17T11:06:28;24.50;99.90
16136;DHT22;8173;48.354;9.248;2022-10-17T11:09:09;24.60;99.90
16136;DHT22;8173;48.354;9.248;2022-10-17T11:11:40;24.60;99.90
16136;DHT22;8173;48.354;9.248;2022-10-17T11:14:12;25.00;99.90
16136;DHT22;8173;48.354;9.248;2022-10-17T11:16:45;24.90;99.90
16136;DHT22;8173;48.354;9.248;2022-10-17T11:19:20;24.80;99.90
16136;DHT22;8173;48.354;9.248;2022-10-17T11:21:59;24.70;99.90
16136;DHT22;8173;48.354;9.248;2022-10-17T11:24:31;24.60;99.90
16136;DHT22;8173;48.354;9.248;2022-10-17T11:27:00;27.50;99.90
16136;DHT22;8173;48.354;9.248;2022-10-17T11:29:31;24.70;99.90
16136;DHT22;8173;48.354;9.248;2022-10-17T11:32:01;24.50;99.90
16136;DHT22;8173;48.354;9.248;2022-10-17T11:34:33;24.40;99.90
16136;DHT22;8173;48.354;9.248;2022-10-17T11:37:05;24.40;99.90
16136;DHT22;8173;48.354;9.248;2022-10-17T11:39:41;24.60;99.90
16136;DHT22;8173;48.354;9.248;2022-10-17T11:42:13;24.50;99.90
16136;DHT22;8173;48.354;9.248;2022-10-17T11:44:41;24.60;99.90
16136;DHT22;8173;48.354;9.248;2022-10-17T11:47:13;24.60;99.90
16136;DHT22;8173;48.354;9.248;2022-10-17T11:49:49;24.70;99.90
16136;DHT22;8173;48.354;9.248;2022-10-17T11:52:27;24.60;99.90
16136;DHT22;8173;48.354;9.248;2022-10-17T11:55:00;24.60;99.90
16136;DHT22;8173;48.354;9.248;2022-10-17T11:57:41;24.60;99.90
16136;DHT22;8173;48.354;9.248;2022-10-17T12:00:26;24.60;99.90
16136;DHT22;8173;48.354;9.248;2022-10-17T12:03:04;24.80;99.90
16136;DHT22;8173;48.354;9.248;2022-10-17T12:05:38;24.70;99.90
16136;DHT22;8173;48.354;9.248;2022-10-17T12:08:10;24.60;99.90
16136;DHT22;8173;48.354;9.248;2022-10-17T12:10:44;24.60;99.90
16136;DHT22;8173;48.354;9.248;2022-10-17T12:13:45;24.60;99.90
16136;DHT22;8173;48.354;9.248;2022-10-17T12:19:28;25.30;99.90
16136;DHT22;8173;48.354;9.248;2022-10-17T12:22:04;25.30;99.90
16136;DHT22;8173;48.354;9.248;2022-10-17T12:24:37;25.30;99.90
16136;DHT22;8173;48.354;9.248;2022-10-17T12:27:35;25.20;99.90
16136;DHT22;8173;48.354;9.248;2022-10-17T12:30:05;25.10;99.90
16136;DHT22;8173;48.354;9.248;2022-10-17T12:35:00;24.80;99.90
16136;DHT22;8173;48.354;9.248;2022-10-17T12:38:13;24.90;98.60
16136;DHT22;8173;48.354;9.248;2022-10-17T12:40:54;24.80;99.10
16136;DHT22;8173;48.354;9.248;2022-10-17T12:43:54;24.70;97.40
16136;DHT22;8173;48.354;9.248;2022-10-17T12:46:46;24.50;99.90
16136;DHT22;8173;48.354;9.248;2022-10-17T12:49:21;24.40;99.90
16136;DHT22;8173;48.354;9.248;2022-10-17T12:55:05;24.20;99.90
16136;DHT22;8173;48.354;9.248;2022-10-17T12:57:33;24.20;99.90
16136;DHT22;8173;48.354;9.248;2022-10-17T13:00:04;23.60;99.90
16136;DHT22;8173;48.354;9.248;2022-10-17T13:05:07;23.40;99.90
16136;DHT22;8173;48.354;9.248;2022-10-17T13:07:40;23.20;99.90
16136;DHT22;8173;48.354;9.248;2022-10-17T13:10:18;23.50;99.90
16136;DHT22;8173;48.354;9.248;2022-10-17T13:12:46;23.40;99.90
16136;DHT22;8173;48.354;9.248;2022-10-17T13:15:16;23.40;99.90
16136;DHT22;8173;48.354;9.248;2022-10-17T13:17:44;23.40;99.90
16136;DHT22;8173;48.354;9.248;2022-10-17T13:20:18;23.30;99.90
16136;DHT22;8173;48.354;9.248;2022-10-17T13:22:47;23.10;99.90
16136;DHT22;8173;48.354;9.248;2022-10-17T13:25:17;23.00;99.90
16136;DHT22;8173;48.354;9.248;2022-10-17T13:30:24;23.10;99.90
16136;DHT22;8173;48.354;9.248;2022-10-17T13:35:25;23.10;99.90
16136;DHT22;8173;48.354;9.248;2022-10-17T13:40:23;23.50;99.90
16136;DHT22;8173;48.354;9.248;2022-10-17T13:42:51;23.50;99.90
16136;DHT22;8173;48.354;9.248;2022-10-17T13:45:23;23.60;99.90
16136;DHT22;8173;48.354;9.248;2022-10-17T13:47:52;23.70;99.90
16136;DHT22;8173;48.354;9.248;2022-10-17T13:50:24;23.90;99.90
16136;DHT22;8173;48.354;9.248;2022-10-17T13:55:33;24.10;99.90
16136;DHT22;8173;48.354;9.248;2022-10-17T13:58:14;23.80;99.90
16136;DHT22;8173;48.354;9.248;2022-10-17T14:00:42;23.60;99.90
16136;DHT22;8173;48.354;9.248;2022-10-17T14:03:10;23.50;99.90
16136;DHT22;8173;48.354;9.248;2022-10-17T14:06:05;23.40;99.80
16136;DHT22;8173;48.354;9.248;2022-10-17T14:08:34;23.30;99.80
16136;DHT22;8173;48.354;9.248;2022-10-17T14:11:13;24.10;99.90
16136;DHT22;8173;48.354;9.248;2022-10-17T14:16:09;23.10;99.70
16136;DHT22;8173;48.354;9.248;2022-10-17T14:18:36;23.00;98.50
16136;DHT22;8173;48.354;9.248;2022-10-17T14:21:04;22.90;99.00
16136;DHT22;8173;48.354;9.248;2022-10-17T14:23:34;22.90;99.60
16136;DHT22;8173;48.354;9.248;2022-10-17T14:26:12;22.70;98.60
16136;DHT22;8173;48.354;9.248;2022-10-17T14:28:41;22.60;99.90
16136;DHT22;8173;48.354;9.248;2022-10-17T14:31:22;22.60;99.90
16136;DHT22;8173;48.354;9.248;2022-10-17T14:33:51;22.60;99.40
16136;DHT22;8173;48.354;9.248;2022-10-17T14:36:19;22.50;99.90
16136;DHT22;8173;48.354;9.248;2022-10-17T14:38:48;22.10;99.80
16136;DHT22;8173;48.354;9.248;2022-10-17T14:41:21;22.00;99.30
16136;DHT22;8173;48.354;9.248;2022-10-17T14:43:54;21.80;99.90
16136;DHT22;8173;48.354;9.248;2022-10-17T14:46:21;21.60;99.90
16136;DHT22;8173;48.354;9.248;2022-10-17T14:48:52;21.50;99.90
16136;DHT22;8173;48.354;9.248;2022-10-17T14:51:20;21.30;99.90
16136;DHT22;8173;48.354;9.248;2022-10-17T14:54:00;21.20;99.90
16136;DHT22;8173;48.354;9.248;2022-10-17T14:56:41;21.00;99.90
16136;DHT22;8173;48.354;9.248;2022-10-17T15:04:03;20.80;99.90
16136;DHT22;8173;48.354;9.248;2022-10-17T15:06:32;20.80;99.90
16136;DHT22;8173;48.354;9.248;2022-10-17T15:13:55;20.70;99.90
16136;DHT22;8173;48.354;9.248;2022-10-17T15:16:24;20.50;99.90
16136;DHT22;8173;48.354;9.248;2022-10-17T15:18:52;20.50;99.90
16136;DHT22;8173;48.354;9.248;2022-10-17T15:21:21;20.40;99.90
16136;DHT22;8173;48.354;9.248;2022-10-17T15:26:17;20.20;99.90
16136;DHT22;8173;48.354;9.248;2022-10-17T15:28:45;20.10;99.90
16136;DHT22;8173;48.354;9.248;2022-10-17T15:31:17;20.10;99.90
16136;DHT22;8173;48.354;9.248;2022-10-17T15:33:44;20.00;99.90
16136;DHT22;8173;48.354;9.248;2022-10-17T15:36:18;19.80;99.90
16136;DHT22;8173;48.354;9.248;2022-10-17T15:38:46;19.70;99.90
16136;DHT22;8173;48.354;9.248;2022-10-17T15:41:13;19.60;99.90
16136;DHT22;8173;48.354;9.248;2022-10-17T15:46:12;19.60;99.90
16136;DHT22;8173;48.354;9.248;2022-10-17T15:48:40;19.50;99.90
16136;DHT22;8173;48.354;9.248;2022-10-17T15:51:08;19.30;99.90
16136;DHT22;8173;48.354;9.248;2022-10-17T15:56:02;19.20;99.90
16136;DHT22;8173;48.354;9.248;2022-10-17T15:58:34;19.00;99.90
16136;DHT22;8173;48.354;9.248;2022-10-17T16:01:02;19.00;99.90
16136;DHT22;8173;48.354;9.248;2022-10-17T16:03:29;18.90;99.90
16136;DHT22;8173;48.354;9.248;2022-10-17T16:08:25;18.70;99.90
16136;DHT22;8173;48.354;9.248;2022-10-17T16:10:52;18.70;99.90
16136;DHT22;8173;48.354;9.248;2022-10-17T16:13:21;18.50;99.90
16136;DHT22;8173;48.354;9.248;2022-10-17T16:15:48;18.30;99.90
16136;DHT22;8173;48.354;9.248;2022-10-17T16:18:15;18.20;99.90
16136;DHT22;8173;48.354;9.248;2022-10-17T16:20:42;18.00;99.90
16136;DHT22;8173;48.354;9.248;2022-10-17T16:23:11;17.80;99.90
16136;DHT22;8173;48.354;9.248;2022-10-17T16:25:38;17.80;99.90
16136;DHT22;8173;48.354;9.248;2022-10-17T16:28:06;17.50;99.90
16136;DHT22;8173;48.354;9.248;2022-10-17T16:30:39;17.20;99.90
16136;DHT22;8173;48.354;9.248;2022-10-17T16:33:09;17.10;99.90
16136;DHT22;8173;48.354;9.248;2022-10-17T16:35:36;16.90;99.90
16136;DHT22;8173;48.354;9.248;2022-10-17T16:38:02;16.80;99.90
16136;DHT22;8173;48.354;9.248;2022-10-17T16:40:31;16.60;99.90
16136;DHT22;8173;48.354;9.248;2022-10-17T16:45:25;16.40;99.90
16136;DHT22;8173;48.354;9.248;2022-10-17T16:47:51;16.30;99.90
16136;DHT22;8173;48.354;9.248;2022-10-17T16:50:18;16.10;99.90
16136;DHT22;8173;48.354;9.248;2022-10-17T16:57:43;15.70;99.90
16136;DHT22;8173;48.354;9.248;2022-10-17T17:02:38;15.30;99.90
16136;DHT22;8173;48.354;9.248;2022-10-17T17:05:06;15.10;99.90
16136;DHT22;8173;48.354;9.248;2022-10-17T17:07:33;15.00;99.90
16136;DHT22;8173;48.354;9.248;2022-10-17T17:12:26;14.80;99.90
16136;DHT22;8173;48.354;9.248;2022-10-17T17:14:54;14.80;99.90
16136;DHT22;8173;48.354;9.248;2022-10-17T17:22:15;14.50;99.90
16136;DHT22;8173;48.354;9.248;2022-10-17T17:24:42;13.00;99.90
16136;DHT22;8173;48.354;9.248;2022-10-17T17:27:09;14.30;99.90
16136;DHT22;8173;48.354;9.248;2022-10-17T17:29:36;14.20;99.90
16136;DHT22;8173;48.354;9.248;2022-10-17T17:32:04;13.80;99.90
16136;DHT22;8173;48.354;9.248;2022-10-17T17:34:34;14.10;99.90
16136;DHT22;8173;48.354;9.248;2022-10-17T17:37:01;14.10;99.90
16136;DHT22;8173;48.354;9.248;2022-10-17T17:39:28;14.00;99.90
16136;DHT22;8173;48.354;9.248;2022-10-17T17:41:55;13.90;99.90
16136;DHT22;8173;48.354;9.248;2022-10-17T17:44:22;13.80;99.90
16136;DHT22;8173;48.354;9.248;2022-10-17T17:46:48;13.70;99.90
16136;DHT22;8173;48.354;9.248;2022-10-17T17:49:16;13.60;99.90
16136;DHT22;8173;48.354;9.248;2022-10-17T17:54:11;13.40;99.90
16136;DHT22;8173;48.354;9.248;2022-10-17T17:59:05;13.20;99.90
16136;DHT22;8173;48.354;9.248;2022-10-17T18:01:33;13.00;99.90
16136;DHT22;8173;48.354;9.248;2022-10-17T18:04:03;12.90;99.90
16136;DHT22;8173;48.354;9.248;2022-10-17T18:06:32;12.90;99.90
16136;DHT22;8173;48.354;9.248;2022-10-17T18:08:59;12.80;99.90
16136;DHT22;8173;48.354;9.248;2022-10-17T18:11:27;12.80;99.90
16136;DHT22;8173;48.354;9.248;2022-10-17T18:13:55;12.70;99.90
16136;DHT22;8173;48.354;9.248;2022-10-17T18:18:49;12.70;99.90
16136;DHT22;8173;48.354;9.248;2022-10-17T18:23:45;12.70;99.90
16136;DHT22;8173;48.354;9.248;2022-10-17T18:26:13;12.50;99.90
16136;DHT22;8173;48.354;9.248;2022-10-17T18:28:41;12.40;99.90
16136;DHT22;8173;48.354;9.248;2022-10-17T18:31:10;12.30;99.90
16136;DHT22;8173;48.354;9.248;2022-10-17T18:36:06;12.30;99.90
16136;DHT22;8173;48.354;9.248;2022-10-17T18:41:06;12.10;99.90
16136;DHT22;8173;48.354;9.248;2022-10-17T18:43:34;12.00;99.90
16136;DHT22;8173;48.354;9.248;2022-10-17T18:46:03;12.10;99.90
16136;DHT22;8173;48.354;9.248;2022-10-17T18:48:31;12.00;99.90
16136;DHT22;8173;48.354;9.248;2022-10-17T18:50:58;12.00;99.90
16136;DHT22;8173;48.354;9.248;2022-10-17T18:58:21;11.90;99.90